createdAt,value
2017-12-14T00:02:17.888Z,45.60
2017-12-14T00:04:45.702Z,45.50
2017-12-14T00:07:13.428Z,45.60
2017-12-14T00:10:10.504Z,45.50
2017-12-14T00:12:48.483Z,45.40
2017-12-14T00:15:16.500Z,45.60
2017-12-14T00:17:44.341Z,45.70
2017-12-14T00:20:12.125Z,45.70
2017-12-14T00:22:39.860Z,45.80
2017-12-14T00:25:07.165Z,45.80
2017-12-14T00:27:34.913Z,45.80
2017-12-14T00:30:02.731Z,45.80
2017-12-14T00:32:30.482Z,46.00
2017-12-14T00:34:58.218Z,45.90
2017-12-14T00:37:25.965Z,46.50
2017-12-14T00:39:53.783Z,45.80
2017-12-14T00:42:21.516Z,45.90
2017-12-14T00:44:49.263Z,45.90
2017-12-14T00:47:17.086Z,46.00
2017-12-14T00:49:44.911Z,46.10
2017-12-14T00:52:13.488Z,46.40
2017-12-14T00:54:41.309Z,46.30
2017-12-14T00:57:09.154Z,46.30
2017-12-14T00:59:36.922Z,46.20
2017-12-14T01:02:04.768Z,46.40
2017-12-14T01:04:32.506Z,46.30
2017-12-14T01:07:00.402Z,46.20
2017-12-14T01:09:28.267Z,46.40
2017-12-14T01:11:56.842Z,46.40
2017-12-14T01:14:24.719Z,46.40
2017-12-14T01:16:53.294Z,46.30
2017-12-14T01:19:21.124Z,46.30
2017-12-14T01:21:48.865Z,46.40
2017-12-14T01:24:16.602Z,46.40
2017-12-14T01:26:44.399Z,47.00
2017-12-14T01:29:12.154Z,47.00
2017-12-14T01:31:39.908Z,46.50
2017-12-14T01:34:07.655Z,46.80
2017-12-14T01:36:35.398Z,46.70
2017-12-14T01:39:03.186Z,46.70
2017-12-14T01:41:30.995Z,46.80
2017-12-14T01:43:58.897Z,46.80
2017-12-14T01:46:26.649Z,46.80
2017-12-14T01:48:54.464Z,46.70
2017-12-14T01:51:22.222Z,46.80
2017-12-14T01:53:49.965Z,47.00
2017-12-14T01:56:17.718Z,47.00
2017-12-14T01:58:45.464Z,47.00
2017-12-14T02:01:13.291Z,47.00
2017-12-14T02:03:41.111Z,47.10
2017-12-14T02:06:08.918Z,46.90
2017-12-14T02:08:36.724Z,47.10
2017-12-14T02:11:04.452Z,47.10
2017-12-14T02:13:32.244Z,47.10
2017-12-14T02:16:00.045Z,47.30
2017-12-14T02:18:27.778Z,47.30
2017-12-14T02:20:55.516Z,47.30
2017-12-14T02:23:23.341Z,47.40
2017-12-14T02:25:51.159Z,47.40
2017-12-14T02:28:18.929Z,47.50
2017-12-14T02:30:46.738Z,47.40
2017-12-14T02:33:14.494Z,47.40
2017-12-14T02:35:43.090Z,47.20
2017-12-14T02:38:10.846Z,47.20
2017-12-14T02:40:38.650Z,44.30
2017-12-14T02:43:06.476Z,37.50
2017-12-14T02:45:34.967Z,47.60
2017-12-14T02:48:02.735Z,47.60
2017-12-14T02:50:30.526Z,47.60
2017-12-14T02:52:58.321Z,47.70
2017-12-14T02:55:26.105Z,47.40
2017-12-14T02:57:53.956Z,47.10
2017-12-14T03:00:21.712Z,47.50
2017-12-14T03:02:49.449Z,47.40
2017-12-14T03:05:17.213Z,46.50
2017-12-14T03:07:44.997Z,44.80
2017-12-14T03:10:12.810Z,40.00
2017-12-14T03:12:40.562Z,35.60
2017-12-14T03:15:08.312Z,45.20
2017-12-14T03:17:36.138Z,42.80
2017-12-14T03:20:04.024Z,46.90
2017-12-14T03:22:31.832Z,37.90
2017-12-14T03:24:59.637Z,52.80
2017-12-14T03:27:27.538Z,49.20
2017-12-14T03:29:55.303Z,39.80
2017-12-14T03:32:23.052Z,46.70
2017-12-14T03:34:50.801Z,45.90
2017-12-14T03:37:19.304Z,45.90
2017-12-14T03:39:47.103Z,45.10
2017-12-14T03:42:14.947Z,53.70
2017-12-14T03:44:42.687Z,60.50
2017-12-14T03:47:10.511Z,52.60
2017-12-14T03:49:38.297Z,43.30
2017-12-14T03:52:06.193Z,46.00
2017-12-14T03:54:35.860Z,44.30
2017-12-14T03:57:03.694Z,44.40
2017-12-14T03:59:31.449Z,50.40
2017-12-14T04:01:59.216Z,43.00
2017-12-14T04:04:26.964Z,52.30
2017-12-14T04:06:54.785Z,52.30
2017-12-14T04:09:22.572Z,53.30
2017-12-14T04:11:50.457Z,43.20
2017-12-14T04:14:18.220Z,55.90
2017-12-14T04:16:46.118Z,53.80
2017-12-14T04:19:13.978Z,51.80
2017-12-14T04:21:42.572Z,51.00
2017-12-14T04:24:10.432Z,50.90
2017-12-14T04:26:39.082Z,49.80
2017-12-14T04:29:06.946Z,49.60
2017-12-14T04:31:34.723Z,48.90
2017-12-14T04:34:02.549Z,47.10
2017-12-14T04:36:30.399Z,49.60
2017-12-14T04:38:58.236Z,51.90
2017-12-14T04:41:26.081Z,46.70
2017-12-14T04:43:53.931Z,51.30
2017-12-14T04:46:21.699Z,49.80
2017-12-14T04:48:49.515Z,50.90
2017-12-14T04:51:17.332Z,49.90
2017-12-14T04:53:45.165Z,45.50
2017-12-14T04:56:13.774Z,50.60
2017-12-14T04:58:41.552Z,50.50
2017-12-14T05:01:09.390Z,45.50
2017-12-14T05:03:38.025Z,49.60
2017-12-14T05:06:05.859Z,49.50
2017-12-14T05:08:33.653Z,50.00
2017-12-14T05:11:01.455Z,46.20
2017-12-14T05:13:29.228Z,49.00
2017-12-14T05:15:57.126Z,47.50
2017-12-14T05:18:24.961Z,49.10
2017-12-14T05:20:52.754Z,44.90
2017-12-14T05:23:21.440Z,47.90
2017-12-14T05:25:49.977Z,47.20
2017-12-14T05:28:17.799Z,47.10
2017-12-14T05:30:45.635Z,47.00
2017-12-14T05:33:13.443Z,46.80
2017-12-14T05:35:41.214Z,42.20
2017-12-14T05:38:10.639Z,48.10
2017-12-14T05:40:38.468Z,48.30
2017-12-14T05:43:06.262Z,47.70
2017-12-14T05:45:34.134Z,47.70
2017-12-14T05:48:02.352Z,47.20
2017-12-14T05:50:30.279Z,42.30
2017-12-14T05:52:58.112Z,41.90
2017-12-14T05:55:27.391Z,47.70
2017-12-14T05:57:55.166Z,47.70
2017-12-14T06:00:22.929Z,47.30
2017-12-14T06:02:50.857Z,36.50
2017-12-14T06:05:18.746Z,42.20
2017-12-14T06:07:46.588Z,45.90
2017-12-14T06:10:14.470Z,46.40
2017-12-14T06:12:42.283Z,46.20
2017-12-14T06:15:10.044Z,47.10
2017-12-14T06:17:37.874Z,45.00
2017-12-14T06:20:05.650Z,46.20
2017-12-14T06:22:33.501Z,46.20
2017-12-14T06:25:01.490Z,45.80
2017-12-14T06:27:29.282Z,41.20
2017-12-14T06:29:57.044Z,45.00
2017-12-14T06:32:24.894Z,45.60
2017-12-14T06:34:52.680Z,45.80
2017-12-14T06:37:20.486Z,45.40
2017-12-14T06:39:48.449Z,44.80
2017-12-14T06:42:16.311Z,45.50
2017-12-14T06:44:44.128Z,45.40
2017-12-14T06:47:12.079Z,45.00
2017-12-14T06:49:39.913Z,44.50
2017-12-14T06:52:07.780Z,44.80
2017-12-14T06:54:35.700Z,43.90
2017-12-14T06:57:03.481Z,45.20
2017-12-14T06:59:31.333Z,44.70
2017-12-14T07:01:59.250Z,44.40
2017-12-14T07:04:27.025Z,44.30
2017-12-14T07:06:54.784Z,44.30
2017-12-14T07:09:22.592Z,44.00
2017-12-14T07:11:50.459Z,31.90
2017-12-14T07:14:18.286Z,38.40
2017-12-14T07:16:46.109Z,37.00
2017-12-14T07:19:13.975Z,37.00
2017-12-14T07:21:41.804Z,38.20
2017-12-14T07:24:09.767Z,49.50
2017-12-14T07:26:37.557Z,50.00
2017-12-14T07:29:06.165Z,35.00
2017-12-14T07:31:34.014Z,35.00
2017-12-14T07:34:01.837Z,38.40
2017-12-14T07:36:30.555Z,47.80
2017-12-14T07:38:58.433Z,47.70
2017-12-14T07:41:27.072Z,44.90
2017-12-14T07:47:09.971Z,35.70
2017-12-14T07:49:38.501Z,43.10
2017-12-14T07:52:06.699Z,43.20
2017-12-14T07:54:34.533Z,42.30
2017-12-14T07:57:02.384Z,43.40
2017-12-14T07:59:30.263Z,34.30
2017-12-14T08:01:58.097Z,36.40
2017-12-14T08:04:25.882Z,47.60
2017-12-14T08:06:53.711Z,38.70
2017-12-14T08:09:21.538Z,49.10
2017-12-14T08:11:49.390Z,43.40
2017-12-14T08:14:17.166Z,36.30
2017-12-14T08:16:45.037Z,50.20
2017-12-14T08:19:12.934Z,41.90
2017-12-14T08:21:40.706Z,43.40
2017-12-14T08:24:08.578Z,38.00
2017-12-14T08:26:36.504Z,34.40
2017-12-14T08:29:05.124Z,35.50
2017-12-14T08:31:32.953Z,35.80
2017-12-14T08:34:00.923Z,34.10
2017-12-14T08:36:28.729Z,36.60
2017-12-14T08:38:56.604Z,39.00
2017-12-14T08:41:24.458Z,50.30
2017-12-14T08:43:52.237Z,47.80
2017-12-14T08:46:20.078Z,42.10
2017-12-14T08:48:47.992Z,44.00
2017-12-14T08:51:15.843Z,33.20
2017-12-14T08:53:43.614Z,43.60
2017-12-14T08:56:11.401Z,36.00
2017-12-14T08:58:39.256Z,37.80
2017-12-14T09:01:07.029Z,46.00
2017-12-14T09:03:34.833Z,40.30
2017-12-14T09:06:03.413Z,44.20
2017-12-14T09:08:32.029Z,40.80
2017-12-14T09:10:59.785Z,40.80
2017-12-14T09:13:27.575Z,51.50
2017-12-14T09:15:55.424Z,46.70
2017-12-14T09:18:23.201Z,47.20
2017-12-14T09:20:50.972Z,41.70
2017-12-14T09:23:18.904Z,49.50
2017-12-14T09:25:47.513Z,50.60
2017-12-14T09:28:15.395Z,50.70
2017-12-14T09:30:43.257Z,40.90
2017-12-14T09:33:11.042Z,45.80
2017-12-14T09:35:38.797Z,48.10
2017-12-14T09:38:06.590Z,50.00
2017-12-14T09:40:34.460Z,40.50
2017-12-14T09:43:02.312Z,47.90
2017-12-14T09:45:30.169Z,46.80
2017-12-14T09:47:58.063Z,49.30
2017-12-14T09:50:25.978Z,41.10
2017-12-14T09:52:54.539Z,54.20
2017-12-14T09:55:22.393Z,54.20
2017-12-14T09:57:50.166Z,43.40
2017-12-14T10:00:18.760Z,41.90
2017-12-14T10:02:46.672Z,42.20
2017-12-14T10:05:14.481Z,39.90
2017-12-14T10:07:42.369Z,41.50
2017-12-14T10:10:10.136Z,43.00
2017-12-14T10:12:37.942Z,45.10
2017-12-14T10:15:05.797Z,47.10
2017-12-14T10:17:34.439Z,52.00
2017-12-14T10:20:02.250Z,52.00
2017-12-14T10:22:30.869Z,53.60
2017-12-14T10:24:58.628Z,53.50
2017-12-14T10:27:26.411Z,43.90
2017-12-14T10:29:54.215Z,42.60
2017-12-14T10:32:22.754Z,47.70
2017-12-14T10:34:50.557Z,47.70
2017-12-14T10:37:18.434Z,44.50
2017-12-14T10:39:46.241Z,41.70
2017-12-14T10:42:14.009Z,41.30
2017-12-14T10:44:41.864Z,46.40
2017-12-14T10:47:10.506Z,42.20
2017-12-14T10:49:38.262Z,42.10
2017-12-14T10:52:06.116Z,44.70
2017-12-14T10:54:33.988Z,52.90
2017-12-14T10:57:01.846Z,43.00
2017-12-14T10:59:29.638Z,42.90
2017-12-14T11:01:57.562Z,41.50
2017-12-14T11:04:25.369Z,39.50
2017-12-14T11:06:53.243Z,43.40
2017-12-14T11:09:21.121Z,47.60
2017-12-14T11:11:48.965Z,38.90
2017-12-14T11:14:17.599Z,48.80
2017-12-14T11:16:45.418Z,48.70
2017-12-14T11:19:13.318Z,49.80
2017-12-14T11:21:41.170Z,39.00
2017-12-14T11:24:09.036Z,43.80
2017-12-14T11:26:36.796Z,38.60
2017-12-14T11:29:05.339Z,39.50
2017-12-14T11:31:33.951Z,43.20
2017-12-14T11:34:01.795Z,43.10
2017-12-14T11:36:30.532Z,46.70
2017-12-14T11:38:58.320Z,46.50
2017-12-14T11:41:26.131Z,47.50
2017-12-14T11:43:54.768Z,38.30
2017-12-14T11:46:22.546Z,38.10
2017-12-14T11:48:50.334Z,37.70
2017-12-14T11:51:19.005Z,43.50
2017-12-14T11:53:46.876Z,42.60
2017-12-14T11:56:14.676Z,48.40
2017-12-14T11:58:42.656Z,37.90
2017-12-14T12:01:10.556Z,34.90
2017-12-14T12:03:38.414Z,33.90
2017-12-14T12:06:06.290Z,43.10
2017-12-14T12:08:34.124Z,45.80
2017-12-14T12:11:02.018Z,38.50
2017-12-14T12:13:29.860Z,38.40
2017-12-14T12:15:57.688Z,46.20
2017-12-14T12:18:25.526Z,32.80
2017-12-14T12:20:53.392Z,34.00
2017-12-14T12:23:21.173Z,39.80
2017-12-14T12:25:48.982Z,45.90
2017-12-14T12:28:17.549Z,31.70
2017-12-14T12:30:45.339Z,31.60
2017-12-14T12:33:13.869Z,42.50
2017-12-14T12:35:41.810Z,42.70
2017-12-14T12:38:09.655Z,43.80
2017-12-14T12:40:37.649Z,44.20
2017-12-14T12:43:06.449Z,42.50
2017-12-14T12:45:34.422Z,42.40
2017-12-14T12:48:02.403Z,42.00
2017-12-14T12:50:33.931Z,37.00
2017-12-14T12:53:02.585Z,32.30
2017-12-14T12:55:30.641Z,32.20
2017-12-14T12:57:58.544Z,42.20
2017-12-14T13:00:27.743Z,37.50
2017-12-14T13:02:56.477Z,37.60
2017-12-14T13:05:24.374Z,43.40
2017-12-14T13:07:52.178Z,34.10
2017-12-14T13:10:20.709Z,41.20
2017-12-14T13:12:48.606Z,41.30
2017-12-14T13:15:17.341Z,41.70
2017-12-14T13:17:45.383Z,41.60
2017-12-14T13:20:13.225Z,35.40
2017-12-14T13:22:44.575Z,34.50
2017-12-14T13:25:12.418Z,39.10
2017-12-14T13:27:40.201Z,37.50
2017-12-14T13:30:08.422Z,40.60
2017-12-14T13:32:36.371Z,41.00
2017-12-14T13:35:04.384Z,40.60
2017-12-14T13:37:33.252Z,30.00
2017-12-14T13:40:01.880Z,32.00
2017-12-14T13:42:29.730Z,31.90
2017-12-14T13:44:58.528Z,38.30
2017-12-14T13:47:26.491Z,38.00
2017-12-14T13:49:54.687Z,39.30
2017-12-14T13:52:22.960Z,42.40
2017-12-14T13:54:50.818Z,35.90
2017-12-14T13:57:18.655Z,45.40
2017-12-14T13:59:46.836Z,33.40
2017-12-14T14:02:15.700Z,43.30
2017-12-14T14:04:43.887Z,42.10
2017-12-14T14:07:12.516Z,35.50
2017-12-14T14:09:41.243Z,40.90
2017-12-14T14:12:09.030Z,40.90
2017-12-14T14:14:36.818Z,40.40
2017-12-14T14:17:04.751Z,37.30
2017-12-14T14:19:32.712Z,30.30
2017-12-14T14:22:01.469Z,42.60
2017-12-14T14:24:29.333Z,42.60
2017-12-14T14:26:57.858Z,34.50
2017-12-14T14:29:25.831Z,34.70
2017-12-14T14:31:53.773Z,37.10
2017-12-14T14:34:21.657Z,30.80
2017-12-14T14:36:49.527Z,38.80
2017-12-14T14:39:17.379Z,43.80
2017-12-14T14:41:45.128Z,41.80
2017-12-14T14:44:13.743Z,34.00
2017-12-14T14:46:41.719Z,33.90
2017-12-14T14:49:09.563Z,44.70
2017-12-14T14:51:38.145Z,44.00
2017-12-14T14:54:06.741Z,42.40
2017-12-14T14:56:34.533Z,42.40
2017-12-14T14:59:02.765Z,41.70
2017-12-14T15:01:30.652Z,41.00
2017-12-14T15:03:58.562Z,40.80
2017-12-14T15:06:26.467Z,40.30
2017-12-14T15:08:54.337Z,40.10
2017-12-14T15:11:22.070Z,39.70
2017-12-14T15:13:49.934Z,40.40
2017-12-14T15:16:17.735Z,40.50
2017-12-14T15:18:46.742Z,39.90
2017-12-14T15:21:14.650Z,39.70
2017-12-14T15:23:42.472Z,36.60
2017-12-14T15:26:10.267Z,39.30
2017-12-14T15:28:39.068Z,42.40
2017-12-14T15:31:07.646Z,42.10
2017-12-14T15:33:35.482Z,42.00
2017-12-14T15:36:04.488Z,41.40
2017-12-14T15:38:32.288Z,41.00
2017-12-14T15:41:00.184Z,40.90
2017-12-14T15:43:27.916Z,41.40
2017-12-14T15:45:55.810Z,41.00
2017-12-14T15:48:23.633Z,41.10
2017-12-14T15:50:52.197Z,34.50
2017-12-14T15:53:20.038Z,34.40
2017-12-14T15:55:48.042Z,37.40
2017-12-14T15:58:15.870Z,51.70
2017-12-14T16:00:44.438Z,47.30
2017-12-14T16:03:12.495Z,47.20
2017-12-14T16:05:41.002Z,45.00
2017-12-14T16:08:08.871Z,45.00
2017-12-14T16:10:36.646Z,42.80
2017-12-14T16:13:04.378Z,45.10
2017-12-14T16:15:32.104Z,45.30
2017-12-14T16:17:59.942Z,44.60
2017-12-14T16:20:27.755Z,43.40
2017-12-14T16:22:55.571Z,39.40
2017-12-14T16:25:23.344Z,39.40
2017-12-14T16:27:51.135Z,39.60
2017-12-14T16:30:18.908Z,39.50
2017-12-14T16:32:46.840Z,39.80
2017-12-14T16:35:14.641Z,41.70
2017-12-14T16:37:42.381Z,42.10
2017-12-14T16:40:10.295Z,42.40
2017-12-14T16:42:38.128Z,42.60
2017-12-14T16:45:05.995Z,42.70
2017-12-14T16:47:33.799Z,42.40
2017-12-14T16:50:02.241Z,42.60
2017-12-14T16:52:30.016Z,42.50
2017-12-14T16:54:57.924Z,42.80
2017-12-14T16:57:25.767Z,41.80
2017-12-14T16:59:53.577Z,42.30
2017-12-14T17:02:21.556Z,42.30
2017-12-14T17:04:50.132Z,43.00
2017-12-14T17:07:18.659Z,43.30
2017-12-14T17:09:46.424Z,43.20
2017-12-14T17:12:15.008Z,42.50
2017-12-14T17:14:42.900Z,42.50
2017-12-14T17:17:10.676Z,43.00
2017-12-14T17:19:38.453Z,43.10
2017-12-14T17:22:06.264Z,43.10
2017-12-14T17:24:34.050Z,43.00
2017-12-14T17:27:01.789Z,42.70
2017-12-14T17:29:30.342Z,42.80
2017-12-14T17:31:59.201Z,42.70
2017-12-14T17:34:27.131Z,42.40
2017-12-14T17:36:55.888Z,40.60
2017-12-14T17:39:23.949Z,40.60
2017-12-14T17:41:51.832Z,42.70
2017-12-14T17:44:19.691Z,40.60
2017-12-14T17:46:47.747Z,34.20
2017-12-14T17:49:15.964Z,42.50
2017-12-14T17:51:44.700Z,43.30
2017-12-14T17:54:14.278Z,31.30
2017-12-14T17:56:42.589Z,31.10
2017-12-14T17:59:10.425Z,32.90
2017-12-14T18:01:38.274Z,35.80
2017-12-14T18:04:06.871Z,38.70
2017-12-14T18:06:34.645Z,38.60
2017-12-14T18:09:02.731Z,55.40
2017-12-14T18:11:30.675Z,50.60
2017-12-14T18:13:58.456Z,50.60
2017-12-14T18:16:27.628Z,50.10
2017-12-14T18:18:55.540Z,49.10
2017-12-14T18:21:23.375Z,49.10
2017-12-14T18:23:51.219Z,48.50
2017-12-14T18:26:19.877Z,47.90
2017-12-14T18:28:50.497Z,47.70
2017-12-14T18:31:18.543Z,48.10
2017-12-14T18:33:49.556Z,48.20
2017-12-14T18:36:20.014Z,47.70
2017-12-14T18:38:55.820Z,49.90
2017-12-14T18:41:39.205Z,48.20
2017-12-14T18:44:07.191Z,47.80
2017-12-14T18:46:35.765Z,47.00
2017-12-14T18:49:03.620Z,47.00
2017-12-14T18:51:31.550Z,46.80
2017-12-14T18:54:01.134Z,46.70
2017-12-14T18:56:32.952Z,46.60
2017-12-14T18:59:01.212Z,47.00
2017-12-14T19:01:29.092Z,46.80
2017-12-14T19:03:58.032Z,46.90
2017-12-14T19:06:27.260Z,47.60
2017-12-14T19:08:57.861Z,48.40
2017-12-14T19:11:26.666Z,49.30
2017-12-14T19:13:55.836Z,48.90
2017-12-14T19:16:24.124Z,48.90
2017-12-14T19:18:52.187Z,48.20
2017-12-14T19:21:20.047Z,48.60
2017-12-14T19:23:48.015Z,49.10
2017-12-14T19:26:16.094Z,49.00
2017-12-14T19:28:44.773Z,49.20
2017-12-14T19:31:12.851Z,49.10
2017-12-14T19:33:40.821Z,49.00
2017-12-14T19:36:09.881Z,49.20
2017-12-14T19:38:37.879Z,49.40
2017-12-14T19:41:07.185Z,49.70
2017-12-14T19:43:37.612Z,49.70
2017-12-14T19:46:05.680Z,49.80
2017-12-14T19:48:33.862Z,49.60
2017-12-14T19:51:01.919Z,49.60
2017-12-14T19:53:29.944Z,50.30
2017-12-14T19:55:58.068Z,50.90
2017-12-14T19:58:26.131Z,51.00
2017-12-14T20:00:54.524Z,50.20
2017-12-14T20:03:25.234Z,50.30
2017-12-14T20:05:55.340Z,50.20
2017-12-14T20:08:24.948Z,50.20
2017-12-14T20:10:54.585Z,50.20
2017-12-14T20:13:24.779Z,50.60
2017-12-14T20:15:53.295Z,50.20
2017-12-14T20:18:23.138Z,49.90
2017-12-14T20:20:53.655Z,49.40
2017-12-14T20:23:21.867Z,49.20
2017-12-14T20:25:50.938Z,49.30
2017-12-14T20:28:20.781Z,49.00
2017-12-14T20:30:49.033Z,49.10
2017-12-14T20:33:18.507Z,48.60
2017-12-14T20:35:48.101Z,48.90
2017-12-14T20:38:17.057Z,48.70
2017-12-14T20:40:46.039Z,48.50
2017-12-14T20:43:16.086Z,48.40
2017-12-14T20:45:46.792Z,48.20
2017-12-14T20:48:16.270Z,48.20
2017-12-14T20:50:46.240Z,47.70
2017-12-14T20:53:16.437Z,47.70
2017-12-14T20:55:44.441Z,47.50
2017-12-14T20:58:12.299Z,47.30
2017-12-14T21:00:40.174Z,47.20
2017-12-14T21:03:08.873Z,47.70
2017-12-14T21:05:36.944Z,47.30
2017-12-14T21:08:04.808Z,47.40
2017-12-14T21:10:32.880Z,47.50
2017-12-14T21:13:01.070Z,47.80
2017-12-14T21:15:29.943Z,47.70
2017-12-14T21:17:57.809Z,47.60
2017-12-14T21:20:25.678Z,47.80
2017-12-14T21:22:53.652Z,47.90
2017-12-14T21:25:21.718Z,47.70
2017-12-14T21:27:49.582Z,47.60
2017-12-14T21:30:17.465Z,47.10
2017-12-14T21:32:45.420Z,47.50
2017-12-14T21:35:13.395Z,47.70
2017-12-14T21:37:41.366Z,47.90
2017-12-14T21:40:09.333Z,47.60
2017-12-14T21:42:37.302Z,47.50
2017-12-14T21:45:05.159Z,47.60
2017-12-14T21:47:34.948Z,47.50
2017-12-14T21:50:02.846Z,47.10
2017-12-14T21:52:30.704Z,47.30
2017-12-14T21:54:58.682Z,47.20
2017-12-14T21:57:27.664Z,47.10
2017-12-14T21:59:55.644Z,47.30
2017-12-14T22:02:23.604Z,47.10
2017-12-14T22:04:53.214Z,45.20
2017-12-14T22:07:21.494Z,45.30
2017-12-14T22:09:49.462Z,47.50
2017-12-14T22:12:17.500Z,47.10
2017-12-14T22:14:45.393Z,47.20
2017-12-14T22:17:13.471Z,40.60
2017-12-14T22:19:41.791Z,47.80
2017-12-14T22:22:09.925Z,43.60
2017-12-14T22:24:38.194Z,47.60
2017-12-14T22:27:06.158Z,47.20
2017-12-14T22:29:34.144Z,47.40
2017-12-14T22:32:02.054Z,47.50
2017-12-14T22:34:29.980Z,47.40
2017-12-14T22:36:57.929Z,47.20
2017-12-14T22:39:26.332Z,46.10
2017-12-14T22:41:55.010Z,46.90
2017-12-14T22:44:23.270Z,46.90
2017-12-14T22:46:51.343Z,47.20
2017-12-14T22:49:19.620Z,46.80
2017-12-14T22:51:48.303Z,47.60
2017-12-14T22:54:16.588Z,47.30
2017-12-14T22:56:44.548Z,47.50
2017-12-14T22:59:13.141Z,47.10
2017-12-14T23:01:41.108Z,47.40
2017-12-14T23:04:08.974Z,47.50
2017-12-14T23:06:39.415Z,47.50
2017-12-14T23:09:07.395Z,47.60
2017-12-14T23:11:35.356Z,47.50
2017-12-14T23:14:03.527Z,47.80
2017-12-14T23:16:32.530Z,47.80
2017-12-14T23:19:01.421Z,48.00
2017-12-14T23:21:29.594Z,48.00
2017-12-14T23:23:58.383Z,48.00
2017-12-14T23:26:26.555Z,47.90
2017-12-14T23:28:54.537Z,47.70
2017-12-14T23:31:22.425Z,47.90
2017-12-14T23:33:50.255Z,47.90
2017-12-14T23:36:18.088Z,47.70
2017-12-14T23:38:45.924Z,48.00
2017-12-14T23:41:13.763Z,48.10
2017-12-14T23:43:41.587Z,48.10
2017-12-14T23:46:09.380Z,48.10
2017-12-14T23:48:37.216Z,48.10
2017-12-14T23:51:05.009Z,48.30
2017-12-14T23:53:32.833Z,48.20
2017-12-14T23:56:00.748Z,47.70
2017-12-14T23:58:28.517Z,48.30
